createdAt,value
2016-12-12T00:00:05.645Z,23.4
2016-12-12T00:00:46.420Z,23.42
2016-12-12T00:01:27.186Z,23.39
2016-12-12T00:02:07.936Z,23.47
2016-12-12T00:02:48.684Z,23.4
2016-12-12T00:03:29.442Z,23.42
2016-12-12T00:04:10.182Z,23.42
2016-12-12T00:04:50.957Z,23.4
2016-12-12T00:05:31.731Z,23.4
2016-12-12T00:06:12.499Z,23.4
2016-12-12T00:06:53.260Z,23.47
2016-12-12T00:07:34.029Z,23.47
2016-12-12T00:08:14.793Z,23.39
2016-12-12T00:08:55.571Z,23.42
2016-12-12T00:09:36.352Z,23.39
2016-12-12T00:10:17.087Z,23.48
2016-12-12T00:10:57.840Z,23.47
2016-12-12T00:11:38.615Z,23.47
2016-12-12T00:12:19.379Z,23.4
2016-12-12T00:13:00.128Z,23.4
2016-12-12T00:13:40.898Z,23.38
2016-12-12T00:14:21.659Z,23.4
2016-12-12T00:15:02.448Z,23.38
2016-12-12T00:15:43.266Z,23.36
2016-12-12T00:16:24.021Z,23.35
2016-12-12T00:17:04.789Z,23.42
2016-12-12T00:17:45.599Z,23.36
2016-12-12T00:18:26.351Z,23.36
2016-12-12T00:19:07.092Z,23.4
2016-12-12T00:19:47.848Z,23.47
2016-12-12T00:20:28.636Z,23.4
2016-12-12T00:21:09.408Z,23.42
2016-12-12T00:21:50.181Z,23.42
2016-12-12T00:22:30.942Z,23.38
2016-12-12T00:23:11.682Z,23.38
2016-12-12T00:23:52.452Z,23.38
2016-12-12T00:24:33.214Z,23.35
2016-12-12T00:25:13.963Z,23.4
2016-12-12T00:25:54.724Z,23.4
2016-12-12T00:26:35.482Z,23.36
2016-12-12T00:27:16.242Z,23.36
2016-12-12T00:27:57.007Z,23.36
2016-12-12T00:28:37.775Z,23.39
2016-12-12T00:29:18.557Z,23.46
2016-12-12T00:29:59.291Z,23.38
2016-12-12T00:30:40.069Z,23.36
2016-12-12T00:31:20.818Z,23.36
2016-12-12T00:32:01.608Z,23.4
2016-12-12T00:32:42.393Z,23.4
2016-12-12T00:33:23.127Z,23.36
2016-12-12T00:34:03.876Z,23.43
2016-12-12T00:34:44.645Z,23.38
2016-12-12T00:35:25.410Z,23.43
2016-12-12T00:36:06.170Z,23.39
2016-12-12T00:36:46.927Z,23.43
2016-12-12T00:37:27.703Z,23.35
2016-12-12T00:38:08.490Z,23.39
2016-12-12T00:38:49.243Z,23.38
2016-12-12T00:39:30.022Z,23.35
2016-12-12T00:40:10.784Z,23.38
2016-12-12T00:40:51.572Z,23.35
2016-12-12T00:41:32.328Z,23.38
2016-12-12T00:42:13.115Z,23.33
2016-12-12T00:42:53.852Z,23.4
2016-12-12T00:43:34.599Z,23.39
2016-12-12T00:44:15.399Z,23.39
2016-12-12T00:44:56.158Z,23.39
2016-12-12T00:45:36.910Z,23.35
2016-12-12T00:46:17.667Z,23.38
2016-12-12T00:46:58.464Z,23.36
2016-12-12T00:47:39.236Z,23.38
2016-12-12T00:48:20.017Z,23.43
2016-12-12T00:49:00.804Z,23.36
2016-12-12T00:49:41.570Z,23.33
2016-12-12T00:50:22.319Z,23.38
2016-12-12T00:51:03.088Z,23.38
2016-12-12T00:51:43.872Z,23.4
2016-12-12T00:52:24.629Z,23.33
2016-12-12T00:53:05.378Z,23.43
2016-12-12T00:53:46.163Z,23.36
2016-12-12T00:54:26.946Z,23.36
2016-12-12T00:55:07.698Z,23.39
2016-12-12T00:55:48.460Z,23.43
2016-12-12T00:56:29.209Z,23.35
2016-12-12T00:57:10.004Z,23.31
2016-12-12T00:57:50.782Z,23.38
2016-12-12T00:58:31.561Z,23.35
2016-12-12T00:59:12.307Z,23.42
2016-12-12T00:59:53.059Z,23.36
2016-12-12T01:00:33.849Z,23.38
2016-12-12T01:01:14.630Z,23.38
2016-12-12T01:01:55.378Z,23.36
2016-12-12T01:02:36.097Z,23.35
2016-12-12T01:03:16.851Z,23.38
2016-12-12T01:03:57.632Z,23.38
2016-12-12T01:04:38.396Z,23.35
2016-12-12T01:05:19.170Z,23.35
2016-12-12T01:05:59.923Z,23.33
2016-12-12T01:06:40.669Z,23.39
2016-12-12T01:07:21.446Z,23.36
2016-12-12T01:08:02.211Z,23.36
2016-12-12T01:08:43.802Z,23.38
2016-12-12T01:09:24.559Z,23.36
2016-12-12T01:10:05.339Z,23.36
2016-12-12T01:10:46.111Z,23.36
2016-12-12T01:11:26.852Z,23.38
2016-12-12T01:12:07.612Z,23.35
2016-12-12T01:12:48.389Z,23.35
2016-12-12T01:13:29.205Z,23.36
2016-12-12T01:14:09.961Z,23.46
2016-12-12T01:14:50.714Z,23.38
2016-12-12T01:15:31.462Z,23.4
2016-12-12T01:16:12.235Z,23.4
2016-12-12T01:16:53.005Z,23.36
2016-12-12T01:17:33.759Z,23.31
2016-12-12T01:18:14.495Z,23.33
2016-12-12T01:18:55.239Z,23.33
2016-12-12T01:19:35.992Z,23.36
2016-12-12T01:20:16.745Z,23.38
2016-12-12T01:20:57.513Z,23.4
2016-12-12T01:21:38.258Z,23.35
2016-12-12T01:22:19.007Z,23.36
2016-12-12T01:22:59.781Z,23.39
2016-12-12T01:23:40.576Z,23.33
2016-12-12T01:24:21.366Z,23.4
2016-12-12T01:25:02.112Z,23.33
2016-12-12T01:25:42.901Z,23.36
2016-12-12T01:26:23.659Z,23.32
2016-12-12T01:27:04.439Z,23.38
2016-12-12T01:27:45.198Z,23.35
2016-12-12T01:28:25.952Z,23.35
2016-12-12T01:29:06.712Z,23.43
2016-12-12T01:29:47.464Z,23.31
2016-12-12T01:30:28.219Z,23.31
2016-12-12T01:31:08.982Z,23.33
2016-12-12T01:31:49.748Z,23.27
2016-12-12T01:32:30.485Z,23.32
2016-12-12T01:33:11.258Z,23.32
2016-12-12T01:33:52.027Z,23.36
2016-12-12T01:34:32.795Z,23.35
2016-12-12T01:35:13.565Z,23.38
2016-12-12T01:35:54.340Z,23.27
2016-12-12T01:36:35.099Z,23.28
2016-12-12T01:37:15.856Z,23.32
2016-12-12T01:37:56.658Z,23.31
2016-12-12T01:38:37.411Z,23.27
2016-12-12T01:39:18.159Z,23.33
2016-12-12T01:39:58.911Z,23.4
2016-12-12T01:40:39.695Z,23.36
2016-12-12T01:41:20.457Z,23.35
2016-12-12T01:42:01.228Z,23.36
2016-12-12T01:42:41.988Z,23.36
2016-12-12T01:43:22.755Z,23.31
2016-12-12T01:44:03.527Z,23.39
2016-12-12T01:44:44.274Z,23.31
2016-12-12T01:45:25.046Z,23.38
2016-12-12T01:46:05.841Z,23.31
2016-12-12T01:46:46.609Z,23.35
2016-12-12T01:47:27.387Z,23.36
2016-12-12T01:48:08.126Z,23.28
2016-12-12T01:48:48.881Z,23.36
2016-12-12T01:49:29.659Z,23.33
2016-12-12T01:50:10.421Z,23.33
2016-12-12T01:50:51.170Z,23.31
2016-12-12T01:51:31.963Z,23.28
2016-12-12T01:52:12.708Z,23.25
2016-12-12T01:52:53.464Z,23.35
2016-12-12T01:53:34.230Z,23.32
2016-12-12T01:54:14.976Z,23.36
2016-12-12T01:54:55.738Z,23.28
2016-12-12T01:55:36.482Z,23.36
2016-12-12T01:56:17.283Z,23.27
2016-12-12T01:56:58.056Z,23.23
2016-12-12T01:57:38.810Z,23.32
2016-12-12T01:58:19.575Z,23.38
2016-12-12T01:59:00.320Z,23.36
2016-12-12T01:59:41.072Z,23.33
2016-12-12T02:00:21.843Z,23.25
2016-12-12T02:01:02.617Z,23.32
2016-12-12T02:01:43.369Z,23.35
2016-12-12T02:02:24.103Z,23.27
2016-12-12T02:03:04.890Z,23.31
2016-12-12T02:03:45.658Z,23.31
2016-12-12T02:04:26.424Z,23.32
2016-12-12T02:05:07.191Z,23.28
2016-12-12T02:05:47.926Z,23.31
2016-12-12T02:06:28.666Z,23.35
2016-12-12T02:07:09.456Z,23.35
2016-12-12T02:07:50.225Z,23.31
2016-12-12T02:08:30.970Z,23.36
2016-12-12T02:09:11.725Z,23.31
2016-12-12T02:09:52.473Z,23.31
2016-12-12T02:10:33.240Z,23.31
2016-12-12T02:11:14.004Z,23.25
2016-12-12T02:11:54.806Z,23.27
2016-12-12T02:12:35.568Z,23.32
2016-12-12T02:13:16.307Z,23.31
2016-12-12T02:13:57.078Z,23.28
2016-12-12T02:14:37.852Z,23.33
2016-12-12T02:15:18.615Z,23.32
2016-12-12T02:15:59.409Z,23.32
2016-12-12T02:16:40.155Z,23.23
2016-12-12T02:17:20.889Z,23.32
2016-12-12T02:18:01.641Z,23.28
2016-12-12T02:18:42.447Z,23.27
2016-12-12T02:19:23.191Z,23.23
2016-12-12T02:20:03.932Z,23.32
2016-12-12T02:20:44.693Z,23.23
2016-12-12T02:21:25.470Z,23.31
2016-12-12T02:22:06.224Z,23.32
2016-12-12T02:22:46.985Z,23.27
2016-12-12T02:23:27.751Z,23.23
2016-12-12T02:24:08.515Z,23.28
2016-12-12T02:24:49.285Z,23.27
2016-12-12T02:25:30.039Z,23.31
2016-12-12T02:26:10.804Z,23.27
2016-12-12T02:26:51.576Z,23.36
2016-12-12T02:27:32.348Z,23.25
2016-12-12T02:28:13.102Z,23.38
2016-12-12T02:28:53.876Z,23.25
2016-12-12T02:29:34.638Z,23.23
2016-12-12T02:30:15.408Z,23.35
2016-12-12T02:30:56.150Z,23.28
2016-12-12T02:31:36.915Z,23.22
2016-12-12T02:32:17.683Z,23.25
2016-12-12T02:32:58.430Z,23.27
2016-12-12T02:33:39.183Z,23.27
2016-12-12T02:34:19.984Z,23.36
2016-12-12T02:35:00.750Z,23.23
2016-12-12T02:35:41.513Z,23.32
2016-12-12T02:36:22.261Z,23.25
2016-12-12T02:37:03.015Z,23.22
2016-12-12T02:37:43.783Z,23.25
2016-12-12T02:38:24.528Z,23.28
2016-12-12T02:39:05.279Z,23.23
2016-12-12T02:39:46.045Z,23.31
2016-12-12T02:40:26.839Z,23.36
2016-12-12T02:41:07.601Z,23.23
2016-12-12T02:41:48.357Z,23.25
2016-12-12T02:42:29.107Z,23.28
2016-12-12T02:43:09.868Z,23.32
2016-12-12T02:43:50.635Z,23.23
2016-12-12T02:44:31.396Z,23.23
2016-12-12T02:45:12.162Z,23.25
2016-12-12T02:45:52.921Z,23.23
2016-12-12T02:46:33.707Z,23.31
2016-12-12T02:47:14.461Z,23.25
2016-12-12T02:47:55.235Z,23.27
2016-12-12T02:48:35.991Z,23.2
2016-12-12T02:49:16.754Z,23.28
2016-12-12T02:49:57.520Z,23.23
2016-12-12T02:50:38.280Z,23.2
2016-12-12T02:51:19.054Z,23.23
2016-12-12T02:51:59.837Z,23.2
2016-12-12T02:52:40.605Z,23.25
2016-12-12T02:53:21.386Z,23.23
2016-12-12T02:54:02.158Z,23.22
2016-12-12T02:54:42.920Z,23.28
2016-12-12T02:55:23.698Z,23.28
2016-12-12T02:56:04.462Z,23.25
2016-12-12T02:56:45.227Z,23.32
2016-12-12T02:57:25.985Z,23.25
2016-12-12T02:58:06.754Z,23.22
2016-12-12T02:58:47.491Z,23.32
2016-12-12T02:59:28.235Z,23.25
2016-12-12T03:00:09.010Z,23.28
2016-12-12T03:00:49.784Z,23.2
2016-12-12T03:01:30.582Z,23.25
2016-12-12T03:02:11.367Z,23.27
2016-12-12T03:02:52.132Z,23.22
2016-12-12T03:03:32.890Z,23.23
2016-12-12T03:04:13.715Z,23.25
2016-12-12T03:04:54.523Z,23.2
2016-12-12T03:05:35.275Z,23.22
2016-12-12T03:06:16.057Z,23.28
2016-12-12T03:06:56.810Z,23.17
2016-12-12T03:07:37.582Z,23.31
2016-12-12T03:08:18.343Z,23.2
2016-12-12T03:08:59.111Z,23.22
2016-12-12T03:09:39.860Z,23.16
2016-12-12T03:10:20.600Z,23.2
2016-12-12T03:11:01.388Z,23.19
2016-12-12T03:11:42.154Z,23.2
2016-12-12T03:12:22.911Z,23.23
2016-12-12T03:13:03.670Z,23.2
2016-12-12T03:13:44.439Z,23.25
2016-12-12T03:14:25.231Z,23.27
2016-12-12T03:15:06.002Z,23.17
2016-12-12T03:15:46.796Z,23.22
2016-12-12T03:16:27.543Z,23.32
2016-12-12T03:17:08.297Z,23.31
2016-12-12T03:17:49.073Z,23.28
2016-12-12T03:18:29.836Z,23.27
2016-12-12T03:19:10.589Z,23.23
2016-12-12T03:19:51.350Z,23.27
2016-12-12T03:20:32.089Z,23.2
2016-12-12T03:21:12.861Z,23.2
2016-12-12T03:21:53.635Z,23.2
2016-12-12T03:22:34.387Z,23.22
2016-12-12T03:23:15.145Z,23.19
2016-12-12T03:23:55.906Z,23.27
2016-12-12T03:24:36.676Z,23.19
2016-12-12T03:25:17.426Z,23.27
2016-12-12T03:25:58.203Z,23.2
2016-12-12T03:26:38.972Z,23.23
2016-12-12T03:27:19.706Z,23.25
2016-12-12T03:28:00.449Z,23.27
2016-12-12T03:28:41.264Z,23.31
2016-12-12T03:29:22.004Z,23.2
2016-12-12T03:30:02.773Z,23.32
2016-12-12T03:30:43.531Z,23.23
2016-12-12T03:31:24.294Z,23.31
2016-12-12T03:32:05.073Z,23.32
2016-12-12T03:32:45.844Z,23.22
2016-12-12T03:33:26.599Z,23.25
2016-12-12T03:34:07.373Z,23.25
2016-12-12T03:34:48.143Z,23.25
2016-12-12T03:35:28.906Z,23.19
2016-12-12T03:36:09.681Z,23.25
2016-12-12T03:36:50.446Z,23.27
2016-12-12T03:37:31.211Z,23.19
2016-12-12T03:38:11.990Z,23.28
2016-12-12T03:38:52.765Z,23.23
2016-12-12T03:39:33.516Z,23.25
2016-12-12T03:40:14.257Z,23.32
2016-12-12T03:40:55.060Z,23.16
2016-12-12T03:41:35.829Z,23.17
2016-12-12T03:42:16.616Z,23.25
2016-12-12T03:42:57.404Z,23.23
2016-12-12T03:43:38.185Z,23.28
2016-12-12T03:44:18.935Z,23.27
2016-12-12T03:44:59.714Z,23.23
2016-12-12T03:45:40.509Z,23.27
2016-12-12T03:46:21.274Z,23.25
2016-12-12T03:47:02.031Z,23.22
2016-12-12T03:47:42.821Z,23.22
2016-12-12T03:48:23.584Z,23.2
2016-12-12T03:49:04.324Z,23.23
2016-12-12T03:49:45.075Z,23.22
2016-12-12T03:50:25.844Z,23.19
2016-12-12T03:51:06.639Z,23.23
2016-12-12T03:51:47.392Z,23.17
2016-12-12T03:52:28.162Z,23.27
2016-12-12T03:53:08.923Z,23.23
2016-12-12T03:53:49.679Z,23.23
2016-12-12T03:54:30.453Z,23.17
2016-12-12T03:55:11.207Z,23.2
2016-12-12T03:55:51.974Z,23.27
2016-12-12T03:56:32.739Z,23.23
2016-12-12T03:57:13.496Z,23.25
2016-12-12T03:57:54.256Z,23.23
2016-12-12T03:58:35.040Z,23.2
2016-12-12T03:59:15.823Z,23.19
2016-12-12T03:59:56.573Z,23.19
2016-12-12T04:00:37.330Z,23.28
2016-12-12T04:01:18.100Z,23.17
2016-12-12T04:01:58.865Z,23.2
2016-12-12T04:02:39.616Z,23.23
2016-12-12T04:03:20.382Z,23.23
2016-12-12T04:04:01.144Z,23.17
2016-12-12T04:04:41.909Z,23.15
2016-12-12T04:05:22.652Z,23.17
2016-12-12T04:06:03.411Z,23.17
2016-12-12T04:06:44.187Z,23.17
2016-12-12T04:07:24.935Z,23.22
2016-12-12T04:08:05.720Z,23.2
2016-12-12T04:08:46.491Z,23.2
2016-12-12T04:09:27.253Z,23.22
2016-12-12T04:10:07.997Z,23.17
2016-12-12T04:10:48.771Z,23.23
2016-12-12T04:11:29.560Z,23.22
2016-12-12T04:12:10.337Z,23.28
2016-12-12T04:12:51.083Z,23.27
2016-12-12T04:13:31.863Z,23.2
2016-12-12T04:14:12.615Z,23.13
2016-12-12T04:14:53.388Z,23.19
2016-12-12T04:15:34.178Z,23.2
2016-12-12T04:16:14.937Z,23.17
2016-12-12T04:16:55.698Z,23.22
2016-12-12T04:17:36.460Z,23.28
2016-12-12T04:18:17.235Z,23.22
2016-12-12T04:18:57.989Z,23.22
2016-12-12T04:19:38.754Z,23.17
2016-12-12T04:20:19.519Z,23.2
2016-12-12T04:21:00.274Z,23.19
2016-12-12T04:21:41.041Z,23.17
2016-12-12T04:22:21.820Z,23.22
2016-12-12T04:23:02.602Z,23.17
2016-12-12T04:23:43.380Z,23.2
2016-12-12T04:24:24.153Z,23.2
2016-12-12T04:25:04.901Z,23.16
2016-12-12T04:25:45.671Z,23.27
2016-12-12T04:26:26.418Z,23.2
2016-12-12T04:27:07.196Z,23.25
2016-12-12T04:27:47.959Z,23.19
2016-12-12T04:28:28.724Z,23.19
2016-12-12T04:29:09.510Z,23.2
2016-12-12T04:29:50.287Z,23.12
2016-12-12T04:30:31.077Z,23.17
2016-12-12T04:31:11.843Z,23.17
2016-12-12T04:31:52.609Z,23.22
2016-12-12T04:32:33.369Z,23.17
2016-12-12T04:33:14.142Z,23.17
2016-12-12T04:33:54.889Z,23.22
2016-12-12T04:34:35.655Z,23.27
2016-12-12T04:35:16.421Z,23.17
2016-12-12T04:35:57.177Z,23.22
2016-12-12T04:36:37.963Z,23.19
2016-12-12T04:37:18.728Z,23.19
2016-12-12T04:37:59.484Z,23.22
2016-12-12T04:38:40.258Z,23.13
2016-12-12T04:39:21.037Z,23.19
2016-12-12T04:40:01.781Z,23.2
2016-12-12T04:40:42.564Z,23.2
2016-12-12T04:41:23.317Z,23.16
2016-12-12T04:42:04.095Z,23.16
2016-12-12T04:42:44.881Z,23.13
2016-12-12T04:43:25.614Z,23.17
2016-12-12T04:44:06.372Z,23.2
2016-12-12T04:44:47.136Z,23.19
2016-12-12T04:45:27.892Z,23.15
2016-12-12T04:46:08.649Z,23.2
2016-12-12T04:46:49.421Z,23.16
2016-12-12T04:47:30.208Z,23.2
2016-12-12T04:48:10.962Z,23.12
2016-12-12T04:48:51.715Z,23.12
2016-12-12T04:49:32.483Z,23.15
2016-12-12T04:50:13.235Z,23.13
2016-12-12T04:50:54.023Z,23.2
2016-12-12T04:51:34.815Z,23.19
2016-12-12T04:52:15.566Z,23.22
2016-12-12T04:52:56.350Z,23.2
2016-12-12T04:53:37.105Z,23.15
2016-12-12T04:54:17.856Z,23.16
2016-12-12T04:54:58.617Z,23.22
2016-12-12T04:55:39.380Z,23.22
2016-12-12T04:56:20.115Z,23.16
2016-12-12T04:57:00.893Z,23.13
2016-12-12T04:57:41.646Z,23.17
2016-12-12T04:58:22.372Z,23.19
2016-12-12T04:59:03.147Z,23.13
2016-12-12T04:59:43.912Z,23.09
2016-12-12T05:00:24.690Z,23.22
2016-12-12T05:01:05.443Z,23.15
2016-12-12T05:01:46.208Z,23.22
2016-12-12T05:02:26.971Z,23.15
2016-12-12T05:03:07.745Z,23.12
2016-12-12T05:03:48.496Z,23.2
2016-12-12T05:04:29.259Z,23.15
2016-12-12T05:05:10.032Z,23.15
2016-12-12T05:05:50.762Z,23.23
2016-12-12T05:06:31.522Z,23.15
2016-12-12T05:07:12.295Z,23.16
2016-12-12T05:07:53.053Z,23.13
2016-12-12T05:08:33.793Z,23.1
2016-12-12T05:09:14.563Z,23.16
2016-12-12T05:09:55.330Z,23.16
2016-12-12T05:10:36.101Z,23.19
2016-12-12T05:11:16.870Z,23.15
2016-12-12T05:11:57.654Z,23.17
2016-12-12T05:12:38.415Z,23.17
2016-12-12T05:13:19.185Z,23.13
2016-12-12T05:13:59.961Z,23.17
2016-12-12T05:14:40.717Z,23.15
2016-12-12T05:15:21.499Z,23.16
2016-12-12T05:16:02.262Z,23.2
2016-12-12T05:16:43.031Z,23.15
2016-12-12T05:17:23.795Z,23.17
2016-12-12T05:18:04.559Z,23.15
2016-12-12T05:18:45.286Z,23.2
2016-12-12T05:19:26.058Z,23.2
2016-12-12T05:20:06.825Z,23.16
2016-12-12T05:20:47.593Z,23.13
2016-12-12T05:21:28.350Z,23.15
2016-12-12T05:22:09.097Z,23.13
2016-12-12T05:22:49.844Z,23.16
2016-12-12T05:23:30.616Z,23.13
2016-12-12T05:24:11.405Z,23.13
2016-12-12T05:24:52.177Z,23.16
2016-12-12T05:25:32.924Z,23.15
2016-12-12T05:26:13.709Z,23.13
2016-12-12T05:26:54.464Z,23.15
2016-12-12T05:27:35.243Z,23.13
2016-12-12T05:28:16.025Z,23.16
2016-12-12T05:28:56.762Z,23.16
2016-12-12T05:29:37.526Z,23.1
2016-12-12T05:30:18.290Z,23.17
2016-12-12T05:30:59.064Z,23.13
2016-12-12T05:31:39.827Z,23.16
2016-12-12T05:32:20.592Z,23.13
2016-12-12T05:33:01.378Z,23.13
2016-12-12T05:33:42.154Z,23.15
2016-12-12T05:34:22.888Z,23.1
2016-12-12T05:35:03.659Z,23.15
2016-12-12T05:35:44.428Z,23.16
2016-12-12T05:36:25.193Z,23.09
2016-12-12T05:37:05.949Z,23.19
2016-12-12T05:37:46.739Z,23.19
2016-12-12T05:38:27.484Z,23.19
2016-12-12T05:39:08.250Z,23.19
2016-12-12T05:39:49.027Z,23.19
2016-12-12T05:40:29.758Z,23.13
2016-12-12T05:41:10.525Z,23.19
2016-12-12T05:41:51.285Z,23.16
2016-12-12T05:42:32.054Z,23.12
2016-12-12T05:43:12.826Z,23.13
2016-12-12T05:43:53.588Z,23.1
2016-12-12T05:44:34.356Z,23.16
2016-12-12T05:45:15.142Z,23.15
2016-12-12T05:45:55.907Z,23.17
2016-12-12T05:46:36.645Z,23.17
2016-12-12T05:47:17.418Z,23.16
2016-12-12T05:47:58.190Z,23.13
2016-12-12T05:48:38.943Z,23.19
2016-12-12T05:49:19.721Z,23.19
2016-12-12T05:50:00.478Z,23.17
2016-12-12T05:50:41.252Z,23.16
2016-12-12T05:51:22.020Z,23.16
2016-12-12T05:52:02.814Z,23.13
2016-12-12T05:52:43.543Z,23.13
2016-12-12T05:53:24.300Z,23.1
2016-12-12T05:54:05.089Z,23.15
2016-12-12T05:54:45.872Z,23.13
2016-12-12T05:55:26.637Z,23.19
2016-12-12T05:56:07.407Z,23.13
2016-12-12T05:56:48.159Z,23.16
2016-12-12T05:57:28.909Z,23.19
2016-12-12T05:58:09.681Z,23.19
2016-12-12T05:58:50.452Z,23.13
2016-12-12T05:59:31.204Z,23.1
2016-12-12T06:00:11.956Z,23.13
2016-12-12T06:00:52.708Z,23.09
2016-12-12T06:01:33.471Z,23.16
2016-12-12T06:02:14.234Z,23.19
2016-12-12T06:02:54.979Z,23.17
2016-12-12T06:03:35.742Z,23.19
2016-12-12T06:04:16.486Z,23.16
2016-12-12T06:04:57.259Z,23.17
2016-12-12T06:05:38.006Z,23.1
2016-12-12T06:06:18.787Z,23.19
2016-12-12T06:06:59.541Z,23.17
2016-12-12T06:07:40.321Z,23.17
2016-12-12T06:08:21.098Z,23.1
2016-12-12T06:09:01.842Z,23.17
2016-12-12T06:09:42.599Z,23.15
2016-12-12T06:10:23.371Z,23.19
2016-12-12T06:11:04.148Z,23.19
2016-12-12T06:11:44.917Z,23.16
2016-12-12T06:12:25.704Z,23.19
2016-12-12T06:13:06.481Z,23.1
2016-12-12T06:13:47.242Z,23.19
2016-12-12T06:14:27.996Z,23.19
2016-12-12T06:15:08.761Z,23.1
2016-12-12T06:15:49.517Z,23.09
2016-12-12T06:16:30.264Z,23.19
2016-12-12T06:17:11.036Z,23.19
2016-12-12T06:17:51.789Z,23.12
2016-12-12T06:18:32.576Z,23.16
2016-12-12T06:19:13.338Z,23.19
2016-12-12T06:19:54.072Z,23.1
2016-12-12T06:20:34.832Z,23.1
2016-12-12T06:21:15.606Z,23.15
2016-12-12T06:21:56.368Z,23.22
2016-12-12T06:22:37.116Z,23.13
2016-12-12T06:23:17.894Z,23.23
2016-12-12T06:23:58.634Z,23.19
2016-12-12T06:24:39.410Z,23.17
2016-12-12T06:25:20.161Z,23.1
2016-12-12T06:26:00.902Z,23.13
2016-12-12T06:26:41.664Z,23.15
2016-12-12T06:27:22.433Z,23.19
2016-12-12T06:28:03.195Z,23.17
2016-12-12T06:28:43.971Z,23.16
2016-12-12T06:29:24.737Z,23.19
2016-12-12T06:30:05.500Z,23.16
2016-12-12T06:30:46.276Z,23.13
2016-12-12T06:31:27.043Z,23.17
2016-12-12T06:32:07.784Z,23.17
2016-12-12T06:32:48.522Z,23.16
2016-12-12T06:33:29.303Z,23.16
2016-12-12T06:34:10.073Z,23.13
2016-12-12T06:34:50.831Z,23.17
2016-12-12T06:35:31.599Z,23.16
2016-12-12T06:36:12.365Z,23.16
2016-12-12T06:36:53.104Z,23.13
2016-12-12T06:37:33.873Z,23.19
2016-12-12T06:38:14.637Z,23.15
2016-12-12T06:38:55.374Z,23.17
2016-12-12T06:39:36.152Z,23.13
2016-12-12T06:40:16.892Z,23.12
2016-12-12T06:40:57.652Z,23.15
2016-12-12T06:41:38.432Z,23.17
2016-12-12T06:42:19.200Z,23.16
2016-12-12T06:42:59.954Z,23.15
2016-12-12T06:43:40.699Z,23.13
2016-12-12T06:44:21.467Z,23.16
2016-12-12T06:45:02.205Z,23.16
2016-12-12T06:45:42.972Z,23.13
2016-12-12T06:46:23.716Z,23.16
2016-12-12T06:47:04.468Z,23.19
2016-12-12T06:47:45.212Z,23.13
2016-12-12T06:48:25.974Z,23.16
2016-12-12T06:49:06.745Z,23.19
2016-12-12T06:49:47.513Z,23.1
2016-12-12T06:50:28.283Z,23.19
2016-12-12T06:51:09.020Z,23.13
2016-12-12T06:51:49.783Z,23.12
2016-12-12T06:52:30.575Z,23.15
2016-12-12T06:53:11.326Z,23.17
2016-12-12T06:53:52.063Z,23.15
2016-12-12T06:54:32.840Z,23.17
2016-12-12T06:55:13.607Z,23.16
2016-12-12T06:55:54.358Z,23.15
2016-12-12T06:56:35.156Z,23.16
2016-12-12T06:57:15.902Z,23.19
2016-12-12T06:57:56.685Z,23.15
2016-12-12T06:58:37.452Z,23.15
2016-12-12T06:59:18.200Z,23.13
2016-12-12T06:59:58.930Z,23.15
2016-12-12T07:00:39.686Z,23.16
2016-12-12T07:01:20.439Z,23.1
2016-12-12T07:02:01.217Z,23.19
2016-12-12T07:02:41.994Z,23.15
2016-12-12T07:03:22.737Z,23.15
2016-12-12T07:04:03.515Z,23.13
2016-12-12T07:04:44.270Z,23.15
2016-12-12T07:05:25.057Z,23.13
2016-12-12T07:06:05.825Z,23.16
2016-12-12T07:06:46.599Z,23.15
2016-12-12T07:07:27.361Z,23.17
2016-12-12T07:08:08.151Z,23.15
2016-12-12T07:08:48.912Z,23.16
2016-12-12T07:09:29.690Z,23.17
2016-12-12T07:10:10.465Z,23.12
2016-12-12T07:10:51.201Z,23.16
2016-12-12T07:11:31.974Z,23.12
2016-12-12T07:12:12.748Z,23.15
2016-12-12T07:12:53.537Z,23.17
2016-12-12T07:13:34.344Z,23.16
2016-12-12T07:14:15.105Z,23.09
2016-12-12T07:14:55.896Z,23.13
2016-12-12T07:15:36.657Z,23.16
2016-12-12T07:16:17.411Z,23.16
2016-12-12T07:16:58.189Z,23.15
2016-12-12T07:17:38.942Z,23.13
2016-12-12T07:18:19.748Z,23.13
2016-12-12T07:19:00.512Z,23.1
2016-12-12T07:19:41.285Z,23.15
2016-12-12T07:20:22.047Z,23.07
2016-12-12T07:21:02.829Z,23.1
2016-12-12T07:21:43.611Z,23.16
2016-12-12T07:22:24.360Z,23.16
2016-12-12T07:23:05.152Z,23.12
2016-12-12T07:23:45.938Z,23.19
2016-12-12T07:24:26.692Z,23.19
2016-12-12T07:25:07.462Z,23.1
2016-12-12T07:25:48.227Z,23.1
2016-12-12T07:26:28.959Z,23.19
2016-12-12T07:27:10.350Z,23.16
2016-12-12T07:27:50.611Z,23.17
2016-12-12T07:28:31.379Z,23.16
2016-12-12T07:29:12.181Z,23.16
2016-12-12T07:29:52.951Z,23.16
2016-12-12T07:30:33.711Z,23.16
2016-12-12T07:31:14.471Z,23.16
2016-12-12T07:31:55.247Z,23.13
2016-12-12T07:32:36.019Z,23.16
2016-12-12T07:33:16.780Z,23.13
2016-12-12T07:33:57.596Z,23.17
2016-12-12T07:34:38.365Z,23.19
2016-12-12T07:35:19.145Z,23.16
2016-12-12T07:36:00.589Z,23.19
2016-12-12T07:36:41.329Z,23.17
2016-12-12T07:37:22.080Z,23.16
2016-12-12T07:38:02.891Z,23.17
2016-12-12T07:38:43.634Z,23.16
2016-12-12T07:39:24.406Z,23.1
2016-12-12T07:40:05.248Z,23.15
2016-12-12T07:40:46.023Z,23.13
2016-12-12T07:41:26.780Z,23.23
2016-12-12T07:42:07.545Z,23.13
2016-12-12T07:42:48.296Z,23.22
2016-12-12T07:43:29.045Z,23.31
2016-12-12T07:44:10.895Z,23.27
2016-12-12T07:44:51.639Z,23.22
2016-12-12T07:45:32.413Z,23.35
2016-12-12T07:46:14.043Z,23.22
2016-12-12T07:46:54.807Z,23.38
2016-12-12T07:47:35.551Z,23.31
2016-12-12T07:48:16.348Z,23.31
2016-12-12T07:48:57.144Z,23.4
2016-12-12T07:49:37.895Z,23.36
2016-12-12T07:50:18.648Z,23.33
2016-12-12T07:50:59.419Z,23.36
2016-12-12T07:51:40.187Z,23.42
2016-12-12T07:52:20.963Z,23.42
2016-12-12T07:53:01.745Z,23.43
2016-12-12T07:53:42.481Z,23.47
2016-12-12T07:54:23.251Z,23.53
2016-12-12T07:55:04.037Z,23.47
2016-12-12T07:55:44.801Z,23.5
2016-12-12T07:56:25.592Z,23.55
2016-12-12T07:57:06.366Z,23.46
2016-12-12T07:57:47.139Z,23.51
2016-12-12T07:58:27.910Z,23.53
2016-12-12T07:59:08.676Z,23.54
2016-12-12T07:59:49.461Z,23.55
2016-12-12T08:00:30.235Z,23.54
2016-12-12T08:01:11.002Z,23.61
2016-12-12T08:01:51.763Z,23.55
2016-12-12T08:02:32.549Z,23.65
2016-12-12T08:03:13.317Z,23.54
2016-12-12T08:03:54.076Z,23.6
2016-12-12T08:04:34.820Z,23.65
2016-12-12T08:05:15.596Z,23.54
2016-12-12T08:05:56.365Z,23.63
2016-12-12T08:06:37.147Z,23.54
2016-12-12T08:07:17.908Z,23.5
2016-12-12T08:07:58.667Z,23.55
2016-12-12T08:08:39.436Z,23.68
2016-12-12T08:09:20.220Z,23.61
2016-12-12T08:10:00.985Z,23.7
2016-12-12T08:10:41.733Z,23.72
2016-12-12T08:11:22.496Z,23.69
2016-12-12T08:12:03.280Z,23.69
2016-12-12T08:12:44.061Z,23.66
2016-12-12T08:13:24.822Z,23.69
2016-12-12T08:14:05.572Z,23.65
2016-12-12T08:14:46.344Z,23.57
2016-12-12T08:15:27.116Z,23.68
2016-12-12T08:16:07.904Z,23.72
2016-12-12T08:16:48.675Z,23.66
2016-12-12T08:17:30.171Z,23.63
2016-12-12T08:18:10.913Z,23.72
2016-12-12T08:18:51.674Z,23.69
2016-12-12T08:19:32.454Z,23.68
2016-12-12T08:20:13.221Z,23.69
2016-12-12T08:20:53.980Z,23.75
2016-12-12T08:21:34.745Z,23.65
2016-12-12T08:22:15.509Z,23.65
2016-12-12T08:22:56.279Z,23.7
2016-12-12T08:23:37.082Z,23.72
2016-12-12T08:24:17.848Z,23.83
2016-12-12T08:24:58.622Z,23.8
2016-12-12T08:25:39.386Z,23.76
2016-12-12T08:26:20.171Z,23.79
2016-12-12T08:27:00.912Z,23.79
2016-12-12T08:27:41.691Z,23.78
2016-12-12T08:28:23.366Z,23.78
2016-12-12T08:29:04.298Z,23.79
2016-12-12T08:29:45.063Z,23.78
2016-12-12T08:30:25.851Z,23.78
2016-12-12T08:31:06.609Z,23.8
2016-12-12T08:31:47.388Z,23.76
2016-12-12T08:32:28.167Z,23.78
2016-12-12T08:33:08.941Z,23.8
2016-12-12T08:33:49.740Z,23.68
2016-12-12T08:34:30.505Z,23.57
2016-12-12T08:35:11.284Z,23.43
2016-12-12T08:35:52.062Z,23.48
2016-12-12T08:36:32.842Z,23.32
2016-12-12T08:37:13.613Z,23.23
2016-12-12T08:37:54.380Z,23.19
2016-12-12T08:38:35.141Z,23.17
2016-12-12T08:39:15.916Z,23.2
2016-12-12T08:39:56.688Z,23.28
2016-12-12T08:40:37.465Z,23.23
2016-12-12T08:41:18.228Z,23.31
2016-12-12T08:41:59.000Z,23.22
2016-12-12T08:42:39.749Z,23.33
2016-12-12T08:43:20.506Z,23.25
2016-12-12T08:44:01.274Z,23.19
2016-12-12T08:44:42.025Z,23.22
2016-12-12T08:45:22.777Z,23.19
2016-12-12T08:46:03.575Z,23.23
2016-12-12T08:46:44.327Z,23.27